Bogue Chitto, Mississippi
Current Conditions -  °F | °C
As of 12:35 AM on Saturday 29 Nov 2014 (Local Time) from K1R7 Reporting Station
Clear Clear  
Wind Chill: 42°   Ceiling: Unl
Heat Index: 45°   Visibility: 10mi
Dew Point: 41°   Wind: 5mph
Humidity: 87%   Direction: 170°S
Pressure: 30.22"   Gusts: NA
Location:  31.44°N, 90.45°W
Report Text: K1R7 290635Z AUTO 17004KT 10SM CLR 07/05 A3022 RMK AO2
Loading
Personal Weather Stations






























Interactive Weather Map New forecast layout! Learn more

10-Day Weather Forecast

Advertisements
Track Severe Weather on mobile